sensor_id;sensor_type;location;lat;lon;timestamp;pressure;altitude;pressure_sealevel;temperature;humidity
10366;BME280;5229;41.820;23.490;2023-04-03T00:01:39;89336.63;;;7.77;51.03
10366;BME280;5229;41.820;23.490;2023-04-03T00:04:05;89337.03;;;7.70;51.59
10366;BME280;5229;41.820;23.490;2023-04-03T00:06:32;89337.66;;;7.67;51.23
10366;BME280;5229;41.820;23.490;2023-04-03T00:09:00;89334.16;;;7.63;52.13
10366;BME280;5229;41.820;23.490;2023-04-03T00:11:27;89324.59;;;7.64;50.95
10366;BME280;5229;41.820;23.490;2023-04-03T00:13:53;89326.88;;;7.65;51.68
10366;BME280;5229;41.820;23.490;2023-04-03T00:16:22;89323.84;;;7.63;51.98
10366;BME280;5229;41.820;23.490;2023-04-03T00:18:48;89325.34;;;7.56;51.85
10366;BME280;5229;41.820;23.490;2023-04-03T00:21:15;89327.63;;;7.49;51.83
10366;BME280;5229;41.820;23.490;2023-04-03T00:23:42;89327.91;;;7.47;52.02
10366;BME280;5229;41.820;23.490;2023-04-03T00:26:09;89331.25;;;7.48;51.55
10366;BME280;5229;41.820;23.490;2023-04-03T00:28:36;89336.41;;;7.48;52.48
10366;BME280;5229;41.820;23.490;2023-04-03T00:31:03;89335.47;;;7.44;52.64
10366;BME280;5229;41.820;23.490;2023-04-03T00:33:31;89329.13;;;7.41;51.74
10366;BME280;5229;41.820;23.490;2023-04-03T00:35:58;89323.19;;;7.41;51.90
10366;BME280;5229;41.820;23.490;2023-04-03T00:38:25;89329.41;;;7.40;52.08
10366;BME280;5229;41.820;23.490;2023-04-03T00:40:51;89328.50;;;7.36;51.80
10366;BME280;5229;41.820;23.490;2023-04-03T00:43:20;89327.88;;;7.30;52.03
10366;BME280;5229;41.820;23.490;2023-04-03T00:45:49;89326.19;;;7.26;52.31
10366;BME280;5229;41.820;23.490;2023-04-03T00:48:19;89331.34;;;7.26;52.14
10366;BME280;5229;41.820;23.490;2023-04-03T00:50:49;89319.06;;;7.23;52.02
10366;BME280;5229;41.820;23.490;2023-04-03T00:53:18;89321.31;;;7.16;52.94
10366;BME280;5229;41.820;23.490;2023-04-03T00:55:47;89329.19;;;7.11;53.46
10366;BME280;5229;41.820;23.490;2023-04-03T00:58:15;89334.19;;;7.07;52.62
10366;BME280;5229;41.820;23.490;2023-04-03T01:00:47;89338.88;;;7.05;52.39
10366;BME280;5229;41.820;23.490;2023-04-03T01:03:15;89349.00;;;7.02;52.80
10366;BME280;5229;41.820;23.490;2023-04-03T01:05:42;89340.66;;;6.96;52.98
10366;BME280;5229;41.820;23.490;2023-04-03T01:08:10;89332.31;;;6.91;53.63
10366;BME280;5229;41.820;23.490;2023-04-03T01:10:37;89329.56;;;6.87;53.60
10366;BME280;5229;41.820;23.490;2023-04-03T01:13:18;89333.63;;;6.80;53.32
10366;BME280;5229;41.820;23.490;2023-04-03T01:15:45;89331.63;;;6.77;53.97
10366;BME280;5229;41.820;23.490;2023-04-03T01:18:12;89329.50;;;6.70;53.48
10366;BME280;5229;41.820;23.490;2023-04-03T01:21:10;89326.28;;;6.65;53.80
10366;BME280;5229;41.820;23.490;2023-04-03T01:23:56;89323.72;;;6.65;53.71
10366;BME280;5229;41.820;23.490;2023-04-03T01:26:25;89325.22;;;6.66;54.07
10366;BME280;5229;41.820;23.490;2023-04-03T01:28:53;89327.69;;;6.71;54.57
10366;BME280;5229;41.820;23.490;2023-04-03T01:31:23;89333.47;;;6.76;54.47
10366;BME280;5229;41.820;23.490;2023-04-03T01:33:53;89327.88;;;6.83;53.67
10366;BME280;5229;41.820;23.490;2023-04-03T01:36:22;89324.13;;;6.89;53.37
10366;BME280;5229;41.820;23.490;2023-04-03T01:38:51;89327.63;;;6.93;53.78
10366;BME280;5229;41.820;23.490;2023-04-03T01:41:18;89311.09;;;6.94;54.37
10366;BME280;5229;41.820;23.490;2023-04-03T01:43:46;89321.88;;;6.96;53.25
10366;BME280;5229;41.820;23.490;2023-04-03T01:46:13;89318.72;;;6.99;54.13
10366;BME280;5229;41.820;23.490;2023-04-03T01:48:40;89310.06;;;7.03;53.79
10366;BME280;5229;41.820;23.490;2023-04-03T01:51:08;89303.72;;;7.09;53.70
10366;BME280;5229;41.820;23.490;2023-04-03T01:53:35;89311.16;;;7.11;53.08
10366;BME280;5229;41.820;23.490;2023-04-03T01:56:03;89306.78;;;7.11;53.23
10366;BME280;5229;41.820;23.490;2023-04-03T01:58:30;89303.72;;;7.09;53.19
10366;BME280;5229;41.820;23.490;2023-04-03T02:00:57;89298.41;;;7.06;53.58
10366;BME280;5229;41.820;23.490;2023-04-03T02:03:23;89290.84;;;7.09;54.00
10366;BME280;5229;41.820;23.490;2023-04-03T02:05:50;89298.41;;;7.14;54.17
10366;BME280;5229;41.820;23.490;2023-04-03T02:08:18;89291.16;;;7.16;53.78
10366;BME280;5229;41.820;23.490;2023-04-03T02:10:47;89295.13;;;7.22;54.15
10366;BME280;5229;41.820;23.490;2023-04-03T02:13:14;89289.66;;;7.24;54.09
10366;BME280;5229;41.820;23.490;2023-04-03T02:15:41;89291.63;;;7.18;53.51
10366;BME280;5229;41.820;23.490;2023-04-03T02:18:09;89287.66;;;7.12;54.29
10366;BME280;5229;41.820;23.490;2023-04-03T02:20:36;89285.19;;;7.07;54.18
10366;BME280;5229;41.820;23.490;2023-04-03T02:23:03;89283.25;;;7.04;54.53
10366;BME280;5229;41.820;23.490;2023-04-03T02:25:32;89280.50;;;7.01;55.06
10366;BME280;5229;41.820;23.490;2023-04-03T02:27:59;89281.69;;;6.95;54.96
10366;BME280;5229;41.820;23.490;2023-04-03T02:30:26;89276.22;;;6.88;55.25
10366;BME280;5229;41.820;23.490;2023-04-03T02:32:53;89279.22;;;6.81;55.22
10366;BME280;5229;41.820;23.490;2023-04-03T02:35:21;89283.75;;;6.76;54.98
10366;BME280;5229;41.820;23.490;2023-04-03T02:37:47;89276.63;;;6.73;55.71
10366;BME280;5229;41.820;23.490;2023-04-03T02:40:14;89278.28;;;6.69;55.23
10366;BME280;5229;41.820;23.490;2023-04-03T02:42:42;89278.41;;;6.64;55.47
10366;BME280;5229;41.820;23.490;2023-04-03T02:45:10;89264.16;;;6.58;55.20
10366;BME280;5229;41.820;23.490;2023-04-03T02:47:37;89265.81;;;6.54;55.26
10366;BME280;5229;41.820;23.490;2023-04-03T02:50:04;89265.81;;;6.54;56.10
10366;BME280;5229;41.820;23.490;2023-04-03T02:52:31;89257.31;;;6.53;56.16
10366;BME280;5229;41.820;23.490;2023-04-03T02:54:58;89259.59;;;6.55;55.63
10366;BME280;5229;41.820;23.490;2023-04-03T02:57:25;89257.00;;;6.55;55.06
10366;BME280;5229;41.820;23.490;2023-04-03T02:59:53;89254.72;;;6.53;56.03
10366;BME280;5229;41.820;23.490;2023-04-03T03:02:19;89251.53;;;6.48;56.01
10366;BME280;5229;41.820;23.490;2023-04-03T03:04:46;89255.75;;;6.44;55.33
10366;BME280;5229;41.820;23.490;2023-04-03T03:07:13;89252.72;;;6.42;56.34
10366;BME280;5229;41.820;23.490;2023-04-03T03:09:40;89251.97;;;6.41;56.18
10366;BME280;5229;41.820;23.490;2023-04-03T03:12:07;89246.81;;;6.41;56.53
10366;BME280;5229;41.820;23.490;2023-04-03T03:14:33;89247.28;;;6.43;56.14
10366;BME280;5229;41.820;23.490;2023-04-03T03:17:02;89256.25;;;6.46;56.48
10366;BME280;5229;41.820;23.490;2023-04-03T03:19:28;89254.69;;;6.45;55.87
10366;BME280;5229;41.820;23.490;2023-04-03T03:21:55;89256.81;;;6.43;55.96
10366;BME280;5229;41.820;23.490;2023-04-03T03:24:22;89255.13;;;6.38;56.39
10366;BME280;5229;41.820;23.490;2023-04-03T03:26:49;89256.59;;;6.31;56.27
10366;BME280;5229;41.820;23.490;2023-04-03T03:29:15;89258.25;;;6.27;56.71
10366;BME280;5229;41.820;23.490;2023-04-03T03:31:42;89257.03;;;6.24;56.12
10366;BME280;5229;41.820;23.490;2023-04-03T03:34:10;89251.72;;;6.21;56.99
10366;BME280;5229;41.820;23.490;2023-04-03T03:36:37;89249.69;;;6.09;56.66
10366;BME280;5229;41.820;23.490;2023-04-03T03:39:04;89241.16;;;6.00;57.06
10366;BME280;5229;41.820;23.490;2023-04-03T03:41:31;89240.72;;;5.98;57.15
10366;BME280;5229;41.820;23.490;2023-04-03T03:43:57;89244.03;;;5.98;56.95
10366;BME280;5229;41.820;23.490;2023-04-03T03:46:24;89242.53;;;5.97;56.56
10366;BME280;5229;41.820;23.490;2023-04-03T03:48:51;89245.09;;;5.97;57.65
10366;BME280;5229;41.820;23.490;2023-04-03T03:51:19;89252.34;;;5.95;57.25
10366;BME280;5229;41.820;23.490;2023-04-03T03:53:46;89264.44;;;5.95;57.62
10366;BME280;5229;41.820;23.490;2023-04-03T03:56:13;89269.00;;;5.98;57.27
10366;BME280;5229;41.820;23.490;2023-04-03T03:58:40;89262.66;;;6.04;57.29
10366;BME280;5229;41.820;23.490;2023-04-03T04:01:07;89264.97;;;6.05;57.32
10366;BME280;5229;41.820;23.490;2023-04-03T04:03:34;89268.16;;;6.11;56.96
10366;BME280;5229;41.820;23.490;2023-04-03T04:06:01;89267.00;;;6.17;57.42
10366;BME280;5229;41.820;23.490;2023-04-03T04:08:29;89270.50;;;6.21;56.57
10366;BME280;5229;41.820;23.490;2023-04-03T04:10:55;89270.69;;;6.25;56.72
10366;BME280;5229;41.820;23.490;2023-04-03T04:13:22;89265.97;;;6.27;57.04
10366;BME280;5229;41.820;23.490;2023-04-03T04:15:49;89260.25;;;6.30;56.98
10366;BME280;5229;41.820;23.490;2023-04-03T04:18:16;89262.34;;;6.28;57.27
10366;BME280;5229;41.820;23.490;2023-04-03T04:20:44;89269.47;;;6.31;57.44
10366;BME280;5229;41.820;23.490;2023-04-03T04:23:11;89266.91;;;6.31;56.64
10366;BME280;5229;41.820;23.490;2023-04-03T04:25:39;89272.03;;;6.31;57.45
10366;BME280;5229;41.820;23.490;2023-04-03T04:28:06;89274.63;;;6.31;57.28
10366;BME280;5229;41.820;23.490;2023-04-03T04:30:33;89266.03;;;6.35;57.21
10366;BME280;5229;41.820;23.490;2023-04-03T04:33:00;89271.34;;;6.39;57.58
10366;BME280;5229;41.820;23.490;2023-04-03T04:35:26;89276.94;;;6.41;57.13
10366;BME280;5229;41.820;23.490;2023-04-03T04:37:53;89280.91;;;6.47;57.70
10366;BME280;5229;41.820;23.490;2023-04-03T04:40:20;89283.69;;;6.59;57.57
10366;BME280;5229;41.820;23.490;2023-04-03T04:42:48;89271.47;;;6.73;56.62
10366;BME280;5229;41.820;23.490;2023-04-03T04:45:15;89275.00;;;6.85;56.80
10366;BME280;5229;41.820;23.490;2023-04-03T04:47:42;89281.09;;;6.98;56.35
10366;BME280;5229;41.820;23.490;2023-04-03T04:50:09;89275.22;;;7.06;56.20
10366;BME280;5229;41.820;23.490;2023-04-03T04:52:36;89285.38;;;7.11;56.44
10366;BME280;5229;41.820;23.490;2023-04-03T04:55:04;89288.72;;;7.20;57.29
10366;BME280;5229;41.820;23.490;2023-04-03T04:57:31;89279.19;;;7.29;56.35
10366;BME280;5229;41.820;23.490;2023-04-03T04:59:59;89284.66;;;7.36;56.32
10366;BME280;5229;41.820;23.490;2023-04-03T05:02:26;89283.91;;;7.44;56.38
10366;BME280;5229;41.820;23.490;2023-04-03T05:04:53;89276.94;;;7.53;56.09
10366;BME280;5229;41.820;23.490;2023-04-03T05:07:19;89278.31;;;7.59;56.03
10366;BME280;5229;41.820;23.490;2023-04-03T05:09:46;89288.47;;;7.64;56.41
10366;BME280;5229;41.820;23.490;2023-04-03T05:12:13;89291.38;;;7.71;55.96
10366;BME280;5229;41.820;23.490;2023-04-03T05:14:40;89272.09;;;7.77;56.22
10366;BME280;5229;41.820;23.490;2023-04-03T05:17:08;89266.47;;;7.83;55.98
10366;BME280;5229;41.820;23.490;2023-04-03T05:19:35;89279.97;;;7.89;56.33
10366;BME280;5229;41.820;23.490;2023-04-03T05:22:01;89283.94;;;7.95;57.08
10366;BME280;5229;41.820;23.490;2023-04-03T05:24:28;89289.09;;;8.03;56.30
10366;BME280;5229;41.820;23.490;2023-04-03T05:26:55;89286.03;;;8.10;56.04
10366;BME280;5229;41.820;23.490;2023-04-03T05:29:22;89290.88;;;8.20;56.07
10366;BME280;5229;41.820;23.490;2023-04-03T05:31:49;89288.63;;;8.27;56.60
10366;BME280;5229;41.820;23.490;2023-04-03T05:34:17;89286.34;;;8.34;56.16
10366;BME280;5229;41.820;23.490;2023-04-03T05:36:44;89280.84;;;8.44;55.81
10366;BME280;5229;41.820;23.490;2023-04-03T05:39:11;89266.06;;;8.53;55.91
10366;BME280;5229;41.820;23.490;2023-04-03T05:41:38;89266.34;;;8.60;56.84
10366;BME280;5229;41.820;23.490;2023-04-03T05:44:04;89266.19;;;8.65;56.55
10366;BME280;5229;41.820;23.490;2023-04-03T05:46:31;89263.13;;;8.71;56.51
10366;BME280;5229;41.820;23.490;2023-04-03T05:48:58;89267.00;;;8.86;56.53
10366;BME280;5229;41.820;23.490;2023-04-03T05:51:30;89265.16;;;8.95;56.28
10366;BME280;5229;41.820;23.490;2023-04-03T05:54:03;89260.25;;;9.02;56.53
10366;BME280;5229;41.820;23.490;2023-04-03T05:56:32;89274.06;;;9.06;56.50
10366;BME280;5229;41.820;23.490;2023-04-03T05:58:59;89269.78;;;9.10;56.27
10366;BME280;5229;41.820;23.490;2023-04-03T06:01:26;89262.91;;;9.14;56.28
10366;BME280;5229;41.820;23.490;2023-04-03T06:03:53;89268.03;;;9.23;56.27
10366;BME280;5229;41.820;23.490;2023-04-03T06:06:21;89271.22;;;9.28;56.24
10366;BME280;5229;41.820;23.490;2023-04-03T06:08:49;89277.72;;;9.34;55.88
10366;BME280;5229;41.820;23.490;2023-04-03T06:11:16;89285.19;;;9.36;56.11
10366;BME280;5229;41.820;23.490;2023-04-03T06:13:42;89288.97;;;9.38;55.94
10366;BME280;5229;41.820;23.490;2023-04-03T06:16:12;89289.09;;;9.42;55.81
10366;BME280;5229;41.820;23.490;2023-04-03T06:18:40;89285.91;;;9.45;55.69
10366;BME280;5229;41.820;23.490;2023-04-03T06:21:07;89276.75;;;9.47;55.83
10366;BME280;5229;41.820;23.490;2023-04-03T06:23:34;89281.28;;;9.50;55.33
10366;BME280;5229;41.820;23.490;2023-04-03T06:26:02;89275.66;;;9.48;55.52
10366;BME280;5229;41.820;23.490;2023-04-03T06:28:29;89276.44;;;9.49;55.30
10366;BME280;5229;41.820;23.490;2023-04-03T06:30:56;89282.03;;;9.51;55.40
10366;BME280;5229;41.820;23.490;2023-04-03T06:33:23;89285.81;;;9.53;55.21
10366;BME280;5229;41.820;23.490;2023-04-03T06:35:49;89286.72;;;9.57;55.16
10366;BME280;5229;41.820;23.490;2023-04-03T06:38:22;89286.53;;;9.62;55.22
10366;BME280;5229;41.820;23.490;2023-04-03T06:40:49;89292.28;;;9.68;55.48
10366;BME280;5229;41.820;23.490;2023-04-03T06:43:18;89289.84;;;9.71;55.51
10366;BME280;5229;41.820;23.490;2023-04-03T06:45:45;89280.38;;;9.75;55.62
10366;BME280;5229;41.820;23.490;2023-04-03T06:48:13;89274.09;;;9.76;55.60
10366;BME280;5229;41.820;23.490;2023-04-03T06:50:40;89273.47;;;9.79;56.19
10366;BME280;5229;41.820;23.490;2023-04-03T06:53:07;89269.19;;;9.83;55.90
10366;BME280;5229;41.820;23.490;2023-04-03T06:55:34;89265.19;;;9.86;55.43
10366;BME280;5229;41.820;23.490;2023-04-03T06:58:01;89258.63;;;9.88;55.83
10366;BME280;5229;41.820;23.490;2023-04-03T07:00:30;89260.25;;;9.93;55.81
10366;BME280;5229;41.820;23.490;2023-04-03T07:02:57;89254.91;;;9.98;55.48
10366;BME280;5229;41.820;23.490;2023-04-03T07:05:24;89255.47;;;10.03;56.03
10366;BME280;5229;41.820;23.490;2023-04-03T07:07:51;89260.47;;;10.08;56.25
10366;BME280;5229;41.820;23.490;2023-04-03T07:10:18;89259.84;;;10.11;56.10
10366;BME280;5229;41.820;23.490;2023-04-03T07:12:45;89256.94;;;10.13;56.23
10366;BME280;5229;41.820;23.490;2023-04-03T07:15:12;89266.34;;;10.17;55.96
10366;BME280;5229;41.820;23.490;2023-04-03T07:17:41;89266.13;;;10.22;55.86
10366;BME280;5229;41.820;23.490;2023-04-03T07:20:08;89262.28;;;10.28;56.37
10366;BME280;5229;41.820;23.490;2023-04-03T07:22:36;89258.22;;;10.39;55.72
10366;BME280;5229;41.820;23.490;2023-04-03T07:25:03;89253.03;;;10.51;56.24
10366;BME280;5229;41.820;23.490;2023-04-03T07:27:32;89250.28;;;10.68;55.65
10366;BME280;5229;41.820;23.490;2023-04-03T07:29:59;89251.59;;;10.86;55.59
10366;BME280;5229;41.820;23.490;2023-04-03T07:32:26;89238.97;;;10.97;55.24
10366;BME280;5229;41.820;23.490;2023-04-03T07:34:54;89237.34;;;11.04;54.98
10366;BME280;5229;41.820;23.490;2023-04-03T07:37:21;89239.72;;;11.09;55.33
10366;BME280;5229;41.820;23.490;2023-04-03T07:39:48;89238.31;;;11.12;54.21
10366;BME280;5229;41.820;23.490;2023-04-03T07:42:15;89236.03;;;11.10;54.47
10366;BME280;5229;41.820;23.490;2023-04-03T07:44:41;89234.31;;;11.14;54.64
10366;BME280;5229;41.820;23.490;2023-04-03T07:47:08;89242.94;;;11.18;53.74
10366;BME280;5229;41.820;23.490;2023-04-03T07:49:35;89234.97;;;11.23;53.76
10366;BME280;5229;41.820;23.490;2023-04-03T07:52:06;89233.66;;;11.29;53.41
10366;BME280;5229;41.820;23.490;2023-04-03T07:54:34;89227.59;;;11.37;53.76
10366;BME280;5229;41.820;23.490;2023-04-03T07:57:01;89226.41;;;11.47;53.44
10366;BME280;5229;41.820;23.490;2023-04-03T07:59:28;89228.75;;;11.52;52.75
10366;BME280;5229;41.820;23.490;2023-04-03T08:01:55;89222.91;;;11.55;51.70
10366;BME280;5229;41.820;23.490;2023-04-03T08:04:22;89222.16;;;11.54;51.91
10366;BME280;5229;41.820;23.490;2023-04-03T08:06:49;89217.72;;;11.55;52.19
10366;BME280;5229;41.820;23.490;2023-04-03T08:09:18;89217.28;;;11.53;52.48
10366;BME280;5229;41.820;23.490;2023-04-03T08:11:45;89216.22;;;11.54;51.95
10366;BME280;5229;41.820;23.490;2023-04-03T08:14:12;89217.06;;;11.58;51.59
10366;BME280;5229;41.820;23.490;2023-04-03T08:16:42;89214.16;;;11.59;51.36
10366;BME280;5229;41.820;23.490;2023-04-03T08:19:09;89214.16;;;11.59;50.67
10366;BME280;5229;41.820;23.490;2023-04-03T08:21:36;89206.78;;;11.61;51.18
10366;BME280;5229;41.820;23.490;2023-04-03T08:24:03;89208.50;;;11.57;51.61
10366;BME280;5229;41.820;23.490;2023-04-03T08:26:32;89209.28;;;11.58;50.84
10366;BME280;5229;41.820;23.490;2023-04-03T08:28:59;89208.94;;;11.59;51.63
10366;BME280;5229;41.820;23.490;2023-04-03T08:31:27;89203.88;;;11.63;50.71
10366;BME280;5229;41.820;23.490;2023-04-03T08:33:53;89207.31;;;11.67;50.75
10366;BME280;5229;41.820;23.490;2023-04-03T08:36:23;89198.22;;;11.73;50.70
10366;BME280;5229;41.820;23.490;2023-04-03T08:38:50;89197.56;;;11.76;49.83
10366;BME280;5229;41.820;23.490;2023-04-03T08:41:20;89193.16;;;11.76;50.53
10366;BME280;5229;41.820;23.490;2023-04-03T08:44:08;89188.03;;;11.80;50.67
10366;BME280;5229;41.820;23.490;2023-04-03T08:46:46;89183.78;;;11.88;50.28
10366;BME280;5229;41.820;23.490;2023-04-03T08:49:21;89183.22;;;11.94;49.90
10366;BME280;5229;41.820;23.490;2023-04-03T08:51:50;89186.66;;;11.98;49.97
10366;BME280;5229;41.820;23.490;2023-04-03T08:54:25;89184.91;;;12.02;50.08
10366;BME280;5229;41.820;23.490;2023-04-03T08:56:54;89179.91;;;12.09;50.51
10366;BME280;5229;41.820;23.490;2023-04-03T08:59:26;89179.69;;;12.14;50.73
10366;BME280;5229;41.820;23.490;2023-04-03T09:01:56;89176.75;;;12.16;50.75
10366;BME280;5229;41.820;23.490;2023-04-03T09:04:25;89176.41;;;12.17;51.35
10366;BME280;5229;41.820;23.490;2023-04-03T09:06:57;89180.19;;;12.20;50.64
10366;BME280;5229;41.820;23.490;2023-04-03T09:09:31;89172.06;;;12.21;50.80
10366;BME280;5229;41.820;23.490;2023-04-03T09:12:05;89172.81;;;12.22;51.16
10366;BME280;5229;41.820;23.490;2023-04-03T09:14:39;89172.81;;;12.22;52.21
10366;BME280;5229;41.820;23.490;2023-04-03T09:17:13;89180.94;;;12.20;51.67
10366;BME280;5229;41.820;23.490;2023-04-03T09:19:47;89183.78;;;12.15;53.23
10366;BME280;5229;41.820;23.490;2023-04-03T09:22:21;89186.63;;;12.10;53.00
10366;BME280;5229;41.820;23.490;2023-04-03T09:24:55;89182.81;;;12.08;53.39
10366;BME280;5229;41.820;23.490;2023-04-03T09:27:23;89193.03;;;12.01;53.55
10366;BME280;5229;41.820;23.490;2023-04-03T09:29:53;89195.97;;;11.99;52.73
10366;BME280;5229;41.820;23.490;2023-04-03T09:32:26;89197.38;;;11.97;53.50
10366;BME280;5229;41.820;23.490;2023-04-03T09:34:54;89200.81;;;12.01;53.87
10366;BME280;5229;41.820;23.490;2023-04-03T09:37:37;89194.91;;;12.00;54.30
10366;BME280;5229;41.820;23.490;2023-04-03T09:40:12;89190.88;;;12.03;54.51
10366;BME280;5229;41.820;23.490;2023-04-03T09:42:54;89175.88;;;11.96;54.58
10366;BME280;5229;41.820;23.490;2023-04-03T09:45:25;89170.56;;;11.93;54.60
10366;BME280;5229;41.820;23.490;2023-04-03T09:48:05;89175.34;;;11.91;54.68
10366;BME280;5229;41.820;23.490;2023-04-03T09:50:33;89175.53;;;11.98;54.82
10366;BME280;5229;41.820;23.490;2023-04-03T09:53:04;89192.63;;;11.99;56.08
10366;BME280;5229;41.820;23.490;2023-04-03T09:55:32;89185.56;;;11.99;56.90
10366;BME280;5229;41.820;23.490;2023-04-03T09:58:23;89184.84;;;11.99;57.58
10366;BME280;5229;41.820;23.490;2023-04-03T10:00:56;89189.25;;;11.98;56.95
10366;BME280;5229;41.820;23.490;2023-04-03T10:03:26;89190.69;;;11.96;57.36
10366;BME280;5229;41.820;23.490;2023-04-03T10:05:54;89187.66;;;11.93;57.14
10366;BME280;5229;41.820;23.490;2023-04-03T10:08:25;89188.41;;;11.94;57.65
10366;BME280;5229;41.820;23.490;2023-04-03T10:11:14;89187.25;;;11.92;57.63
10366;BME280;5229;41.820;23.490;2023-04-03T10:13:55;89185.28;;;11.88;57.26
10366;BME280;5229;41.820;23.490;2023-04-03T10:16:32;89182.94;;;11.83;57.69
10366;BME280;5229;41.820;23.490;2023-04-03T10:19:33;89193.78;;;11.73;58.54
10366;BME280;5229;41.820;23.490;2023-04-03T10:22:05;89184.72;;;11.67;57.71
10366;BME280;5229;41.820;23.490;2023-04-03T10:24:44;89184.50;;;11.60;58.97
10366;BME280;5229;41.820;23.490;2023-04-03T10:27:18;89180.28;;;11.56;58.35
10366;BME280;5229;41.820;23.490;2023-04-03T10:29:53;89183.88;;;11.51;58.73
10366;BME280;5229;41.820;23.490;2023-04-03T10:32:44;89184.84;;;11.47;59.82
10366;BME280;5229;41.820;23.490;2023-04-03T10:35:18;89184.75;;;11.43;59.28
10366;BME280;5229;41.820;23.490;2023-04-03T10:37:57;89193.53;;;11.39;58.98
10366;BME280;5229;41.820;23.490;2023-04-03T10:40:30;89194.50;;;11.34;60.14
10366;BME280;5229;41.820;23.490;2023-04-03T10:43:06;89191.38;;;11.29;60.65
10366;BME280;5229;41.820;23.490;2023-04-03T10:45:56;89192.16;;;11.17;59.75
10366;BME280;5229;41.820;23.490;2023-04-03T10:48:38;89180.28;;;11.16;60.63
10366;BME280;5229;41.820;23.490;2023-04-03T10:51:14;89183.41;;;11.22;60.81
10366;BME280;5229;41.820;23.490;2023-04-03T10:53:45;89180.16;;;11.25;60.96
10366;BME280;5229;41.820;23.490;2023-04-03T10:56:19;89176.78;;;11.24;60.92
10366;BME280;5229;41.820;23.490;2023-04-03T10:58:51;89185.66;;;11.23;61.12
10366;BME280;5229;41.820;23.490;2023-04-03T11:01:23;89176.03;;;11.24;60.92
10366;BME280;5229;41.820;23.490;2023-04-03T11:03:55;89179.38;;;11.24;61.44
10366;BME280;5229;41.820;23.490;2023-04-03T11:06:25;89173.75;;;11.22;61.52
10366;BME280;5229;41.820;23.490;2023-04-03T11:08:56;89177.13;;;11.23;61.57
10366;BME280;5229;41.820;23.490;2023-04-03T11:11:26;89172.25;;;11.21;61.81
10366;BME280;5229;41.820;23.490;2023-04-03T11:13:58;89170.63;;;11.17;61.34
10366;BME280;5229;41.820;23.490;2023-04-03T11:16:30;89169.00;;;11.12;61.69
10366;BME280;5229;41.820;23.490;2023-04-03T11:19:02;89166.31;;;11.09;61.65
10366;BME280;5229;41.820;23.490;2023-04-03T11:21:33;89168.47;;;11.07;62.09
10366;BME280;5229;41.820;23.490;2023-04-03T11:24:05;89164.38;;;11.06;61.72
10366;BME280;5229;41.820;23.490;2023-04-03T11:26:39;89158.44;;;11.05;61.36
10366;BME280;5229;41.820;23.490;2023-04-03T11:29:11;89159.09;;;11.02;61.59
10366;BME280;5229;41.820;23.490;2023-04-03T11:31:54;89158.97;;;10.99;62.12
10366;BME280;5229;41.820;23.490;2023-04-03T11:34:33;89153.69;;;10.95;61.90
10366;BME280;5229;41.820;23.490;2023-04-03T11:37:06;89162.88;;;10.93;61.72
10366;BME280;5229;41.820;23.490;2023-04-03T11:39:39;89143.13;;;10.88;61.77
10366;BME280;5229;41.820;23.490;2023-04-03T11:42:15;89135.97;;;10.85;62.19
10366;BME280;5229;41.820;23.490;2023-04-03T11:44:42;89121.50;;;10.84;62.18
10366;BME280;5229;41.820;23.490;2023-04-03T11:47:10;89117.81;;;10.85;61.73
10366;BME280;5229;41.820;23.490;2023-04-03T11:53:02;89134.47;;;10.84;62.15
10366;BME280;5229;41.820;23.490;2023-04-03T11:55:43;89131.88;;;10.84;62.35
10366;BME280;5229;41.820;23.490;2023-04-03T11:58:18;89122.91;;;10.82;62.34
10366;BME280;5229;41.820;23.490;2023-04-03T12:00:55;89108.34;;;10.77;62.16
10366;BME280;5229;41.820;23.490;2023-04-03T12:04:06;89115.13;;;10.70;62.14
10366;BME280;5229;41.820;23.490;2023-04-03T12:10:17;89119.13;;;10.67;61.83
10366;BME280;5229;41.820;23.490;2023-04-03T12:12:56;89105.31;;;10.63;61.92
10366;BME280;5229;41.820;23.490;2023-04-03T12:21:17;89109.44;;;10.52;60.91
10366;BME280;5229;41.820;23.490;2023-04-03T12:24:02;89101.31;;;10.42;60.58
10366;BME280;5229;41.820;23.490;2023-04-03T12:26:36;89088.91;;;10.35;60.67
10366;BME280;5229;41.820;23.490;2023-04-03T12:29:14;89090.50;;;10.28;60.73
10366;BME280;5229;41.820;23.490;2023-04-03T12:31:48;89091.47;;;10.23;60.25
10366;BME280;5229;41.820;23.490;2023-04-03T12:34:35;89074.53;;;10.14;60.49
10366;BME280;5229;41.820;23.490;2023-04-03T12:37:19;89077.41;;;10.00;60.26
10366;BME280;5229;41.820;23.490;2023-04-03T12:39:55;89074.38;;;9.86;60.86
10366;BME280;5229;41.820;23.490;2023-04-03T12:42:56;89082.53;;;9.64;61.08
10366;BME280;5229;41.820;23.490;2023-04-03T12:45:27;89077.50;;;9.47;61.43
10366;BME280;5229;41.820;23.490;2023-04-03T12:47:56;89078.75;;;9.29;61.76
10366;BME280;5229;41.820;23.490;2023-04-03T12:50:25;89070.81;;;9.14;61.86
10366;BME280;5229;41.820;23.490;2023-04-03T12:52:58;89063.75;;;9.02;62.66
10366;BME280;5229;41.820;23.490;2023-04-03T12:55:26;89052.91;;;8.88;62.95
10366;BME280;5229;41.820;23.490;2023-04-03T12:57:54;89059.09;;;8.75;62.66
10366;BME280;5229;41.820;23.490;2023-04-03T13:00:29;89055.56;;;8.59;63.11
10366;BME280;5229;41.820;23.490;2023-04-03T13:02:57;89057.00;;;8.48;63.25
10366;BME280;5229;41.820;23.490;2023-04-03T13:05:25;89047.81;;;8.38;63.73
10366;BME280;5229;41.820;23.490;2023-04-03T13:07:56;89045.28;;;8.30;63.84
10366;BME280;5229;41.820;23.490;2023-04-03T13:10:24;89050.00;;;8.19;64.15
10366;BME280;5229;41.820;23.490;2023-04-03T13:12:52;89040.59;;;8.15;64.79
10366;BME280;5229;41.820;23.490;2023-04-03T13:15:23;89032.16;;;8.06;64.32
10366;BME280;5229;41.820;23.490;2023-04-03T13:17:52;89041.28;;;8.03;64.72
10366;BME280;5229;41.820;23.490;2023-04-03T13:20:22;89041.41;;;8.07;65.45
10366;BME280;5229;41.820;23.490;2023-04-03T13:22:56;89030.00;;;8.08;65.01
10366;BME280;5229;41.820;23.490;2023-04-03T13:25:26;89009.63;;;8.15;65.38
10366;BME280;5229;41.820;23.490;2023-04-03T13:27:54;89026.44;;;8.21;65.71
10366;BME280;5229;41.820;23.490;2023-04-03T13:30:27;89021.16;;;8.26;65.75
10366;BME280;5229;41.820;23.490;2023-04-03T13:32:56;89022.03;;;8.30;65.93
10366;BME280;5229;41.820;23.490;2023-04-03T13:35:35;89010.63;;;8.31;65.33